Time;durP1;ratioP1;P1;durP2;ratioP2;P2;SDS_P1;SDS_P2;PMS_P1;PMS_P2;Temp;Humidity;BMP_temperature;BMP_pressure;BME280_temperature;BME280_humidity;BME280_pressure;Samples;Min_cycle;Max_cycle;Signal;HPM_P1;HPM_P2
2022/08/03 00:01:34;;;;;;;;;;;;;;;21.32;100.00;96438.72;5108662;28;19959;-58
2022/08/03 00:04:02;;;;;;;;;;;;;;;21.29;100.00;96439.94;5105749;28;19963;-51
2022/08/03 00:06:32;;;;;;;;;;;;;;;21.33;100.00;96433.16;5102215;28;20337;-51
2022/08/03 00:09:04;;;;;;;;;;;;;;;20.99;100.00;96444.16;5108201;28;19963;-56
2022/08/03 00:11:32;;;;;;;;;;;;;;;21.17;100.00;96435.47;5106547;28;19970;-48
2022/08/03 00:14:00;;;;;;;;;;;;;;;21.16;100.00;96431.13;5106986;28;19966;-50
2022/08/03 00:16:28;;;;;;;;;;;;;;;21.35;100.00;96427.59;5103673;28;20952;-50
2022/08/03 00:18:56;;;;;;;;;;;;;;;21.33;100.00;96430.47;5105774;28;19952;-50
2022/08/03 00:21:27;;;;;;;;;;;;;;;21.25;100.00;96429.88;5105330;28;19959;-50
2022/08/03 00:23:57;;;;;;;;;;;;;;;21.30;100.00;96432.72;5108100;28;20363;-55
2022/08/03 00:26:25;;;;;;;;;;;;;;;21.29;100.00;96428.41;5105111;28;19963;-46
2022/08/03 00:28:53;;;;;;;;;;;;;;;20.99;100.00;96439.66;5109594;28;19920;-47
2022/08/03 00:31:21;;;;;;;;;;;;;;;21.00;100.00;96435.94;5108536;28;19953;-48
2022/08/03 00:34:09;;;;;;;;;;;;;;;20.99;100.00;96433.44;5107288;28;20380;-48
2022/08/03 00:36:39;;;;;;;;;;;;;;;21.02;100.00;96438.41;5108193;28;20372;-50
2022/08/03 00:39:09;;;;;;;;;;;;;;;21.10;100.00;96427.44;5108633;28;19951;-48
2022/08/03 00:41:37;;;;;;;;;;;;;;;20.93;100.00;96424.41;5107914;28;20345;-47
2022/08/03 00:44:05;;;;;;;;;;;;;;;20.68;100.00;96429.63;5102644;28;20061;-46
2022/08/03 00:46:33;;;;;;;;;;;;;;;20.80;100.00;96427.94;5106982;28;20457;-45
2022/08/03 00:49:01;;;;;;;;;;;;;;;20.90;100.00;96426.69;5107107;28;19951;-47
2022/08/03 00:51:29;;;;;;;;;;;;;;;20.82;100.00;96428.56;5103121;27;19986;-50
2022/08/03 00:53:57;;;;;;;;;;;;;;;20.88;100.00;96426.88;5101116;28;19959;-47
2022/08/03 00:56:27;;;;;;;;;;;;;;;20.54;100.00;96431.50;5107016;28;19974;-45
2022/08/03 00:58:55;;;;;;;;;;;;;;;20.64;100.00;96428.38;5104780;28;19974;-47
2022/08/03 01:01:23;;;;;;;;;;;;;;;20.73;100.00;96429.00;5107337;28;19959;-52
2022/08/03 01:03:51;;;;;;;;;;;;;;;20.50;100.00;96434.75;5106991;28;19955;-52
2022/08/03 01:06:20;;;;;;;;;;;;;;;20.82;100.00;96430.44;5107536;28;19966;-45
2022/08/03 01:08:48;;;;;;;;;;;;;;;20.85;100.00;96433.50;5105213;28;19970;-52
2022/08/03 01:11:17;;;;;;;;;;;;;;;20.90;100.00;96427.50;5104979;28;19970;-48
2022/08/03 01:13:50;;;;;;;;;;;;;;;20.71;100.00;96425.69;5105369;27;20333;-50
2022/08/03 01:16:40;;;;;;;;;;;;;;;20.85;100.00;96430.81;5105665;28;19959;-52
2022/08/03 01:19:12;;;;;;;;;;;;;;;20.55;100.00;96426.97;5105037;28;19971;-45
2022/08/03 01:21:43;;;;;;;;;;;;;;;20.69;100.00;96423.22;5106835;27;19963;-51
2022/08/03 01:24:18;;;;;;;;;;;;;;;20.60;100.00;96425.28;5103579;28;19966;-45
2022/08/03 01:26:54;;;;;;;;;;;;;;;20.66;100.00;96429.00;5105619;28;19959;-52
2022/08/03 01:29:46;;;;;;;;;;;;;;;20.82;100.00;96417.84;5104602;28;19963;-48
2022/08/03 01:32:17;;;;;;;;;;;;;;;20.83;100.00;96414.13;5086818;28;19962;-52
2022/08/03 01:35:06;;;;;;;;;;;;;;;20.48;100.00;96420.75;5102621;28;19971;-46
2022/08/03 01:37:37;;;;;;;;;;;;;;;20.49;100.00;96417.84;5106451;28;20330;-49
2022/08/03 01:40:06;;;;;;;;;;;;;;;20.26;100.00;96417.47;5102272;27;19968;-53
2022/08/03 01:42:34;;;;;;;;;;;;;;;20.44;100.00;96419.50;5107461;27;20374;-50
2022/08/03 01:45:02;;;;;;;;;;;;;;;20.47;100.00;96419.09;5104589;28;20487;-47
2022/08/03 01:47:31;;;;;;;;;;;;;;;20.24;100.00;96417.69;5110186;27;19978;-51
2022/08/03 01:49:59;;;;;;;;;;;;;;;20.13;100.00;96419.13;5109014;28;19971;-47
2022/08/03 01:52:27;;;;;;;;;;;;;;;20.05;100.00;96413.13;5108128;27;20349;-57
2022/08/03 01:54:55;;;;;;;;;;;;;;;19.91;100.00;96414.97;5109176;27;19978;-44
2022/08/03 01:57:23;;;;;;;;;;;;;;;19.75;100.00;96412.69;5101803;28;19967;-49
2022/08/03 01:59:51;;;;;;;;;;;;;;;19.89;100.00;96425.09;5108313;28;19966;-47
2022/08/03 02:02:19;;;;;;;;;;;;;;;20.32;100.00;96417.47;5107261;27;19955;-51
2022/08/03 02:05:03;;;;;;;;;;;;;;;20.35;100.00;96411.69;5106467;28;19974;-54
2022/08/03 02:07:37;;;;;;;;;;;;;;;20.36;100.00;96417.88;5108442;28;20349;-49
2022/08/03 02:10:06;;;;;;;;;;;;;;;20.29;100.00;96415.19;5111388;28;20372;-47
2022/08/03 02:12:34;;;;;;;;;;;;;;;20.34;100.00;96411.91;5103360;28;19959;-53
2022/08/03 02:15:02;;;;;;;;;;;;;;;20.32;100.00;96408.59;5113913;28;20018;-48
2022/08/03 02:17:30;;;;;;;;;;;;;;;20.17;100.00;96416.84;5102988;28;19968;-53
2022/08/03 02:20:09;;;;;;;;;;;;;;;20.18;100.00;96412.31;5110185;28;19970;-48
2022/08/03 02:22:37;;;;;;;;;;;;;;;20.12;100.00;96417.44;5113235;28;19963;-49
2022/08/03 02:25:06;;;;;;;;;;;;;;;20.08;100.00;96410.88;5108769;28;19930;-56
2022/08/03 02:27:34;;;;;;;;;;;;;;;19.91;100.00;96417.66;5109229;28;19967;-50
2022/08/03 02:30:03;;;;;;;;;;;;;;;19.91;100.00;96414.97;5102429;28;19963;-45
2022/08/03 02:32:32;;;;;;;;;;;;;;;19.89;100.00;96420.53;5106020;27;20022;-47
2022/08/03 02:35:01;;;;;;;;;;;;;;;19.73;100.00;96423.59;5104886;28;20004;-58
2022/08/03 02:37:31;;;;;;;;;;;;;;;19.69;100.00;96419.69;5099267;28;20450;-50
2022/08/03 02:40:01;;;;;;;;;;;;;;;19.19;100.00;96421.75;5110088;28;19974;-47
2022/08/03 02:42:29;;;;;;;;;;;;;;;19.31;100.00;96422.84;5110031;27;19963;-57
2022/08/03 02:44:57;;;;;;;;;;;;;;;19.34;100.00;96416.25;5104752;28;20624;-52
2022/08/03 02:47:26;;;;;;;;;;;;;;;19.36;100.00;96417.69;5104144;27;19989;-52
2022/08/03 02:49:54;;;;;;;;;;;;;;;19.20;100.00;96420.72;5105532;28;19967;-46
2022/08/03 02:52:23;;;;;;;;;;;;;;;19.53;100.00;96417.34;5105650;28;19955;-45
2022/08/03 02:54:53;;;;;;;;;;;;;;;19.51;100.00;96422.06;5106663;28;19970;-45
2022/08/03 02:57:21;;;;;;;;;;;;;;;19.16;100.00;96420.28;5107838;27;19974;-48
2022/08/03 02:59:49;;;;;;;;;;;;;;;18.88;100.00;96416.88;5106253;28;20360;-51
2022/08/03 03:02:17;;;;;;;;;;;;;;;19.19;100.00;96413.72;5096805;28;19989;-59
2022/08/03 03:04:46;;;;;;;;;;;;;;;19.34;100.00;96414.41;5089842;28;20006;-49
2022/08/03 03:07:34;;;;;;;;;;;;;;;19.39;100.00;96411.13;5104919;28;19962;-45
2022/08/03 03:10:22;;;;;;;;;;;;;;;19.45;100.00;96413.00;5105431;27;19978;-56
2022/08/03 03:12:50;;;;;;;;;;;;;;;19.37;100.00;96419.38;5101547;28;19963;-47
2022/08/03 03:15:18;;;;;;;;;;;;;;;19.16;100.00;96420.28;5110740;28;19963;-44
2022/08/03 03:17:46;;;;;;;;;;;;;;;19.06;100.00;96411.81;5107510;27;19971;-46
2022/08/03 03:20:15;;;;;;;;;;;;;;;18.78;100.00;96414.56;5108640;28;20030;-45
2022/08/03 03:22:57;;;;;;;;;;;;;;;18.78;100.00;96419.91;5105799;28;20055;-48
2022/08/03 03:25:26;;;;;;;;;;;;;;;19.05;100.00;96412.03;5109993;27;19992;-55
2022/08/03 03:27:55;;;;;;;;;;;;;;;19.03;100.00;96406.91;5104668;27;19971;-47
2022/08/03 03:30:24;;;;;;;;;;;;;;;18.77;100.00;96414.78;5106697;27;20412;-55
2022/08/03 03:32:52;;;;;;;;;;;;;;;18.27;100.00;96418.34;5101966;28;19955;-45
2022/08/03 03:35:20;;;;;;;;;;;;;;;18.44;100.00;96423.34;5108298;27;20409;-48
2022/08/03 03:37:48;;;;;;;;;;;;;;;18.82;100.00;96421.16;5108339;27;19974;-47
2022/08/03 03:40:18;;;;;;;;;;;;;;;18.90;100.00;96422.88;5109371;27;20397;-45
2022/08/03 03:42:47;;;;;;;;;;;;;;;18.68;100.00;96419.41;5107267;27;19924;-49
2022/08/03 03:45:15;;;;;;;;;;;;;;;18.61;100.00;96429.22;5107845;27;19954;-46
2022/08/03 03:47:43;;;;;;;;;;;;;;;18.82;100.00;96423.00;5104553;28;19970;-48
2022/08/03 03:50:11;;;;;;;;;;;;;;;18.96;100.00;96422.09;5103941;28;19971;-50
2022/08/03 03:52:39;;;;;;;;;;;;;;;18.77;100.00;96436.97;5104256;28;19955;-46
2022/08/03 03:55:08;;;;;;;;;;;;;;;18.99;100.00;96421.66;5105054;28;19963;-48
2022/08/03 03:57:36;;;;;;;;;;;;;;;18.86;100.00;96429.63;5105544;28;19962;-44
2022/08/03 04:00:06;;;;;;;;;;;;;;;18.96;100.00;96428.25;5111709;28;19955;-44
2022/08/03 04:02:34;;;;;;;;;;;;;;;18.97;100.00;96426.41;5103274;28;20064;-47
2022/08/03 04:13:20;;;;;;;;;;;;;;;19.50;100.00;96433.78;5105503;28;19955;-48
2022/08/03 04:15:50;;;;;;;;;;;;;;;19.93;100.00;96434.34;5112018;27;19963;-46
2022/08/03 04:18:18;;;;;;;;;;;;;;;19.68;100.00;96431.41;5111665;28;20410;-51
2022/08/03 04:20:47;;;;;;;;;;;;;;;19.79;100.00;96436.19;5111196;28;19963;-51
2022/08/03 04:23:15;;;;;;;;;;;;;;;20.74;100.00;96436.00;5105607;28;19959;-47
2022/08/03 04:25:43;;;;;;;;;;;;;;;21.27;100.00;96425.94;5110713;28;19986;-45
2022/08/03 04:28:11;;;;;;;;;;;;;;;21.54;100.00;96426.69;5111313;28;19955;-49
2022/08/03 04:31:00;;;;;;;;;;;;;;;21.70;100.00;96427.19;5110772;28;19975;-46
2022/08/03 04:33:28;;;;;;;;;;;;;;;21.89;100.00;96434.31;5109669;28;19967;-44
2022/08/03 04:35:58;;;;;;;;;;;;;;;22.64;100.00;96431.69;5106573;28;19963;-51
2022/08/03 04:38:29;;;;;;;;;;;;;;;22.59;100.00;96428.00;5111349;28;19971;-47
2022/08/03 04:40:57;;;;;;;;;;;;;;;22.09;100.00;96434.16;5110765;28;19959;-47
2022/08/03 04:43:25;;;;;;;;;;;;;;;23.52;100.00;96432.38;5110725;28;20353;-50
2022/08/03 04:45:53;;;;;;;;;;;;;;;23.98;100.00;96434.44;5110781;28;19967;-47
2022/08/03 04:48:22;;;;;;;;;;;;;;;24.52;100.00;96438.00;5110913;28;19989;-47
2022/08/03 04:50:50;;;;;;;;;;;;;;;25.50;100.00;96433.69;5110477;28;19954;-47
2022/08/03 04:53:18;;;;;;;;;;;;;;;25.98;100.00;96427.06;5110313;28;19951;-51
2022/08/03 04:55:46;;;;;;;;;;;;;;;26.15;100.00;96435.19;5110569;28;20382;-49
2022/08/03 04:58:14;;;;;;;;;;;;;;;24.47;100.00;96445.16;5110580;28;19967;-48
2022/08/03 05:00:44;;;;;;;;;;;;;;;24.42;100.00;96450.41;5110476;28;19955;-53
2022/08/03 05:03:12;;;;;;;;;;;;;;;25.36;100.00;96435.00;5108664;28;19978;-51
2022/08/03 05:05:52;;;;;;;;;;;;;;;26.32;100.00;96435.19;5104714;28;19974;-50
2022/08/03 05:08:36;;;;;;;;;;;;;;;27.03;100.00;96435.50;5110816;28;19966;-46
2022/08/03 05:11:15;;;;;;;;;;;;;;;27.72;100.00;96437.72;5109928;28;20384;-49
2022/08/03 05:13:43;;;;;;;;;;;;;;;28.20;100.00;96441.50;5109839;28;20361;-50
2022/08/03 05:16:12;;;;;;;;;;;;;;;28.60;99.62;96446.50;5115358;27;19962;-53
2022/08/03 05:18:40;;;;;;;;;;;;;;;28.62;100.00;96454.38;5111527;27;19973;-48
2022/08/03 05:21:12;;;;;;;;;;;;;;;28.23;100.00;96445.59;5109363;28;19959;-48
2022/08/03 05:23:40;;;;;;;;;;;;;;;28.75;99.70;96444.97;5109890;28;19952;-45
2022/08/03 05:26:10;;;;;;;;;;;;;;;29.01;94.07;96445.97;5110392;28;19974;-48
2022/08/03 05:28:38;;;;;;;;;;;;;;;29.30;90.18;96451.84;5108840;28;19959;-48
2022/08/03 05:31:18;;;;;;;;;;;;;;;29.15;93.93;96455.31;5105196;28;19959;-51
2022/08/03 05:33:47;;;;;;;;;;;;;;;29.02;98.35;96450.34;5109970;28;19993;-45
2022/08/03 05:36:17;;;;;;;;;;;;;;;28.89;100.00;96448.88;5109795;28;19959;-49
2022/08/03 05:38:45;;;;;;;;;;;;;;;27.23;100.00;96458.53;5110586;28;19955;-52
2022/08/03 05:41:13;;;;;;;;;;;;;;;27.14;100.00;96460.84;5109933;28;20354;-49
2022/08/03 05:43:51;;;;;;;;;;;;;;;27.24;100.00;96458.28;5109944;28;19967;-54
2022/08/03 05:46:19;;;;;;;;;;;;;;;25.48;100.00;96468.19;5109852;28;19963;-46
2022/08/03 05:48:47;;;;;;;;;;;;;;;27.17;100.00;96463.06;5109857;28;19978;-54
2022/08/03 05:51:17;;;;;;;;;;;;;;;27.06;100.00;96466.66;5109741;28;20401;-48
2022/08/03 05:53:45;;;;;;;;;;;;;;;25.85;100.00;96465.19;5109415;28;20448;-47
2022/08/03 05:56:13;;;;;;;;;;;;;;;25.65;100.00;96457.47;5109871;28;19955;-52
2022/08/03 05:58:44;;;;;;;;;;;;;;;26.26;100.00;96463.22;5110219;28;19959;-45
2022/08/03 06:01:12;;;;;;;;;;;;;;;25.97;100.00;96463.22;5109395;28;19956;-54
2022/08/03 06:03:40;;;;;;;;;;;;;;;26.17;100.00;96461.97;5109310;28;19967;-54
2022/08/03 06:06:08;;;;;;;;;;;;;;;26.16;100.00;96458.47;5110029;28;20402;-53
2022/08/03 06:08:37;;;;;;;;;;;;;;;26.00;100.00;96456.53;5110307;28;19966;-47
2022/08/03 06:11:05;;;;;;;;;;;;;;;25.70;100.00;96462.97;5108863;28;19970;-45
2022/08/03 06:13:33;;;;;;;;;;;;;;;25.94;100.00;96462.91;5109492;28;19959;-45
2022/08/03 06:16:02;;;;;;;;;;;;;;;25.83;100.00;96464.59;5112334;28;19970;-44
2022/08/03 06:18:30;;;;;;;;;;;;;;;25.69;100.00;96465.91;5111734;27;19985;-46
2022/08/03 06:20:58;;;;;;;;;;;;;;;26.09;100.00;96468.59;5109094;28;19951;-49
2022/08/03 06:23:44;;;;;;;;;;;;;;;25.12;100.00;96469.34;5109202;28;19962;-46
2022/08/03 06:26:21;;;;;;;;;;;;;;;25.61;100.00;96467.13;5104557;28;19975;-52
2022/08/03 06:28:49;;;;;;;;;;;;;;;25.80;100.00;96462.38;5101120;28;19959;-53
2022/08/03 06:31:21;;;;;;;;;;;;;;;25.84;100.00;96468.13;5109234;28;19970;-53
2022/08/03 06:33:49;;;;;;;;;;;;;;;26.01;100.00;96467.09;5109430;28;19970;-46
2022/08/03 06:36:37;;;;;;;;;;;;;;;26.52;100.00;96470.72;5109113;28;19970;-50
2022/08/03 06:39:07;;;;;;;;;;;;;;;25.28;100.00;96482.09;5109889;28;19963;-46
2022/08/03 06:41:35;;;;;;;;;;;;;;;25.73;100.00;96472.47;5108368;28;19975;-49
2022/08/03 06:44:05;;;;;;;;;;;;;;;25.73;100.00;96472.47;5112786;28;19966;-48
2022/08/03 06:46:33;;;;;;;;;;;;;;;25.63;100.00;96478.50;5113354;28;19963;-50
2022/08/03 06:49:01;;;;;;;;;;;;;;;26.11;100.00;96479.97;5113327;28;19962;-54
2022/08/03 06:51:29;;;;;;;;;;;;;;;26.75;100.00;96466.22;5112755;28;19989;-50
2022/08/03 06:54:21;;;;;;;;;;;;;;;26.78;100.00;96471.13;5113254;28;19970;-53
2022/08/03 06:56:49;;;;;;;;;;;;;;;27.17;100.00;96474.72;5111087;28;19978;-46
2022/08/03 06:59:17;;;;;;;;;;;;;;;26.21;100.00;96471.22;5113105;28;19966;-49
2022/08/03 07:02:05;;;;;;;;;;;;;;;26.61;100.00;96473.84;5113320;28;19974;-54
2022/08/03 07:04:33;;;;;;;;;;;;;;;26.40;100.00;96469.13;5113235;28;19989;-46
2022/08/03 07:07:01;;;;;;;;;;;;;;;27.36;100.00;96471.72;5112816;28;19959;-48
2022/08/03 07:09:30;;;;;;;;;;;;;;;26.99;100.00;96477.66;5112898;28;19967;-47
2022/08/03 07:12:01;;;;;;;;;;;;;;;27.45;100.00;96470.19;5111589;28;19967;-54
2022/08/03 07:14:29;;;;;;;;;;;;;;;28.07;100.00;96475.28;5112532;28;19955;-46
2022/08/03 07:16:58;;;;;;;;;;;;;;;27.50;100.00;96472.16;5117747;27;20353;-45
2022/08/03 07:19:25;;;;;;;;;;;;;;;27.85;100.00;96477.22;5112532;27;19955;-46
2022/08/03 07:21:54;;;;;;;;;;;;;;;28.16;100.00;96471.03;5108381;28;20286;-45
2022/08/03 07:24:29;;;;;;;;;;;;;;;28.54;100.00;96471.13;5103168;28;20639;-49
2022/08/03 07:26:58;;;;;;;;;;;;;;;28.23;100.00;96468.13;5112460;28;19955;-51
2022/08/03 07:29:26;;;;;;;;;;;;;;;28.72;100.00;96465.31;5112423;28;19978;-45
2022/08/03 07:31:54;;;;;;;;;;;;;;;28.61;99.14;96471.75;5112146;28;19975;-48
2022/08/03 07:34:22;;;;;;;;;;;;;;;29.16;100.00;96459.66;5112607;28;19963;-46
2022/08/03 07:36:50;;;;;;;;;;;;;;;28.74;100.00;96465.88;5112148;28;19967;-45
2022/08/03 07:39:18;;;;;;;;;;;;;;;28.69;100.00;96457.69;5106305;28;20356;-43
2022/08/03 07:41:49;;;;;;;;;;;;;;;29.28;100.00;96459.44;5111599;28;19963;-48
2022/08/03 07:44:18;;;;;;;;;;;;;;;29.37;92.00;96463.28;5112534;28;19967;-45
2022/08/03 07:46:46;;;;;;;;;;;;;;;29.49;89.51;96455.75;5112089;28;19959;-49
2022/08/03 07:49:14;;;;;;;;;;;;;;;29.33;90.39;96457.56;5112382;27;19971;-47
2022/08/03 07:51:43;;;;;;;;;;;;;;;28.78;99.13;96456.13;5112131;28;19969;-48
2022/08/03 07:54:11;;;;;;;;;;;;;;;28.69;87.84;96457.69;5111513;28;20353;-47
2022/08/03 07:56:39;;;;;;;;;;;;;;;29.36;95.43;96453.53;5111928;28;19962;-51
2022/08/03 07:59:07;;;;;;;;;;;;;;;29.41;92.97;96458.97;5111964;28;19963;-51
2022/08/03 08:01:37;;;;;;;;;;;;;;;29.65;90.81;96464.81;5111181;28;19963;-52
2022/08/03 08:04:05;;;;;;;;;;;;;;;29.29;97.60;96448.31;5104857;28;19979;-52
2022/08/03 08:06:33;;;;;;;;;;;;;;;30.06;89.03;96440.44;5111585;28;19962;-52
2022/08/03 08:09:01;;;;;;;;;;;;;;;29.89;92.43;96443.41;5111288;28;19959;-54
2022/08/03 08:11:29;;;;;;;;;;;;;;;29.89;90.21;96443.41;5110613;28;19939;-52
2022/08/03 08:14:01;;;;;;;;;;;;;;;29.79;90.52;96446.09;5111736;28;19951;-46
2022/08/03 08:16:29;;;;;;;;;;;;;;;30.18;86.69;96440.22;5114493;27;19974;-47
2022/08/03 08:18:58;;;;;;;;;;;;;;;30.31;81.62;96445.13;5111207;27;19974;-46
2022/08/03 08:21:26;;;;;;;;;;;;;;;29.79;87.03;96443.38;5107436;28;19970;-48
2022/08/03 08:24:14;;;;;;;;;;;;;;;30.03;84.68;96438.25;5111126;28;19963;-51
2022/08/03 08:26:46;;;;;;;;;;;;;;;30.32;83.32;96441.34;5111486;28;19967;-47
2022/08/03 08:29:14;;;;;;;;;;;;;;;30.71;89.94;96446.22;5110996;28;19990;-49
2022/08/03 08:31:42;;;;;;;;;;;;;;;31.19;80.19;96444.81;5110701;28;20397;-53
2022/08/03 08:34:11;;;;;;;;;;;;;;;30.31;79.92;96438.88;5109253;28;19963;-45
2022/08/03 08:36:40;;;;;;;;;;;;;;;30.49;72.96;96439.16;5109990;28;20573;-48
2022/08/03 08:39:08;;;;;;;;;;;;;;;30.87;79.58;96438.91;5111274;28;19967;-49
2022/08/03 08:41:36;;;;;;;;;;;;;;;30.44;77.56;96439.16;5103500;28;19974;-46
2022/08/03 08:44:06;;;;;;;;;;;;;;;30.48;69.56;96437.50;5111333;28;20404;-51
2022/08/03 08:46:34;;;;;;;;;;;;;;;31.21;68.13;96430.91;5111043;28;19982;-47
2022/08/03 08:49:03;;;;;;;;;;;;;;;31.28;69.26;96436.91;5111082;28;20291;-45
2022/08/03 08:51:36;;;;;;;;;;;;;;;31.32;68.85;96429.81;5110034;27;19974;-51
2022/08/03 08:54:24;;;;;;;;;;;;;;;30.72;70.29;96424.16;5110932;27;19966;-47
2022/08/03 08:56:52;;;;;;;;;;;;;;;30.41;71.15;96428.81;5110781;28;19958;-46
2022/08/03 08:59:20;;;;;;;;;;;;;;;31.26;63.85;96430.91;5110952;27;20652;-50
2022/08/03 09:01:48;;;;;;;;;;;;;;;31.12;62.17;96429.84;5110491;28;19963;-50
2022/08/03 09:04:16;;;;;;;;;;;;;;;30.95;61.51;96430.16;5106471;28;19959;-50
2022/08/03 09:06:46;;;;;;;;;;;;;;;31.59;61.49;96428.59;5110038;28;19982;-49
2022/08/03 09:09:34;;;;;;;;;;;;;;;31.21;61.53;96425.44;5104477;28;20427;-45
2022/08/03 09:12:22;;;;;;;;;;;;;;;31.20;62.02;96421.91;5109850;28;19947;-50
2022/08/03 09:15:21;;;;;;;;;;;;;;;31.91;61.70;96417.31;5110271;28;20365;-48
2022/08/03 09:17:50;;;;;;;;;;;;;;;32.10;55.95;96420.97;5110310;27;19970;-50
2022/08/03 09:20:19;;;;;;;;;;;;;;;31.90;56.02;96426.56;5110015;28;19971;-46
2022/08/03 09:22:55;;;;;;;;;;;;;;;31.14;57.42;96428.50;5109992;28;19955;-47
2022/08/03 09:25:29;;;;;;;;;;;;;;;31.35;54.57;96428.44;5110425;28;19962;-48
2022/08/03 09:28:04;;;;;;;;;;;;;;;31.84;52.37;96423.03;5110343;28;19967;-45
2022/08/03 09:30:32;;;;;;;;;;;;;;;32.15;51.59;96426.41;5110150;28;19993;-52
2022/08/03 09:33:02;;;;;;;;;;;;;;;31.75;51.27;96423.91;5110048;28;20128;-45
2022/08/03 09:35:30;;;;;;;;;;;;;;;31.99;47.79;96424.06;5110456;28;20028;-50
2022/08/03 09:38:22;;;;;;;;;;;;;;;32.31;44.91;96424.41;5104727;28;19962;-45
2022/08/03 09:40:50;;;;;;;;;;;;;;;32.22;47.34;96419.84;5109847;28;19971;-45
2022/08/03 09:43:26;;;;;;;;;;;;;;;32.25;47.70;96424.72;5109597;28;19974;-46
2022/08/03 09:46:02;;;;;;;;;;;;;;;31.92;46.88;96416.19;5105555;28;19971;-49
2022/08/03 09:48:30;;;;;;;;;;;;;;;32.38;43.50;96424.91;5110091;28;19963;-48
2022/08/03 09:50:59;;;;;;;;;;;;;;;33.17;43.73;96427.47;5109765;28;19967;-48
2022/08/03 09:53:44;;;;;;;;;;;;;;;32.22;45.35;96425.28;5109556;28;20366;-50
2022/08/03 09:56:37;;;;;;;;;;;;;;;32.74;44.07;96435.53;5104496;28;19982;-49
2022/08/03 09:59:05;;;;;;;;;;;;;;;32.57;39.13;96432.41;5105989;28;19955;-47
2022/08/03 10:01:33;;;;;;;;;;;;;;;32.42;39.04;96427.06;5108445;28;20900;-50
2022/08/03 10:04:01;;;;;;;;;;;;;;;33.03;42.11;96427.34;5109430;28;19970;-50
2022/08/03 10:06:32;;;;;;;;;;;;;;;32.64;42.11;96423.88;5110142;28;19966;-47
2022/08/03 10:09:08;;;;;;;;;;;;;;;32.10;42.40;96431.09;5109741;28;20428;-52
2022/08/03 10:11:37;;;;;;;;;;;;;;;32.62;41.83;96421.44;5102351;28;20376;-52
2022/08/03 10:14:09;;;;;;;;;;;;;;;32.18;42.61;96429.69;5109270;28;19963;-51
2022/08/03 10:16:38;;;;;;;;;;;;;;;33.31;40.74;96419.38;5115921;27;19962;-49
2022/08/03 10:19:06;;;;;;;;;;;;;;;33.17;40.37;96413.81;5113514;28;20022;-51
2022/08/03 10:21:35;;;;;;;;;;;;;;;32.81;40.99;96416.88;5113236;28;20369;-49
2022/08/03 10:24:04;;;;;;;;;;;;;;;33.10;41.11;96413.34;5113842;28;19951;-50
2022/08/03 10:26:34;;;;;;;;;;;;;;;32.97;41.29;96414.06;5113758;28;19962;-48
2022/08/03 10:29:04;;;;;;;;;;;;;;;33.43;41.02;96414.34;5113293;27;20367;-48
2022/08/03 10:31:40;;;;;;;;;;;;;;;32.80;41.97;96407.06;5107522;28;19963;-48
2022/08/03 10:34:25;;;;;;;;;;;;;;;33.82;41.17;96394.16;5109944;28;19971;-53
2022/08/03 10:36:53;;;;;;;;;;;;;;;33.54;39.38;96398.63;5113820;28;20410;-46
2022/08/03 10:39:22;;;;;;;;;;;;;;;32.88;41.73;96402.91;5110058;28;19959;-44
2022/08/03 10:41:51;;;;;;;;;;;;;;;33.11;41.95;96401.31;5111987;28;20363;-49
2022/08/03 10:44:20;;;;;;;;;;;;;;;33.99;39.90;96393.63;5113102;28;19967;-49
2022/08/03 10:46:49;;;;;;;;;;;;;;;33.56;40.04;96401.91;5113302;28;19970;-48
2022/08/03 10:49:17;;;;;;;;;;;;;;;33.38;40.86;96395.28;5113257;28;19958;-48
2022/08/03 10:52:02;;;;;;;;;;;;;;;33.87;39.98;96387.81;5112755;28;19963;-50
2022/08/03 10:57:48;;;;;;;;;;;;;;;34.41;37.29;96383.69;5112749;28;19970;-48
2022/08/03 11:00:19;;;;;;;;;;;;;;;34.57;37.70;96382.34;5108396;28;19979;-46
2022/08/03 11:03:07;;;;;;;;;;;;;;;34.61;38.43;96379.84;5106149;28;19962;-52
2022/08/03 11:05:39;;;;;;;;;;;;;;;34.05;37.62;96372.53;5109232;28;20570;-46
2022/08/03 11:08:20;;;;;;;;;;;;;;;34.47;36.05;96372.34;5112595;28;19966;-45
2022/08/03 11:10:48;;;;;;;;;;;;;;;33.61;35.18;96366.28;5106914;28;19959;-50
2022/08/03 11:13:18;;;;;;;;;;;;;;;33.98;34.85;96370.94;5112594;28;20416;-48
2022/08/03 11:15:47;;;;;;;;;;;;;;;34.22;35.65;96368.13;5114065;27;19963;-49
2022/08/03 11:18:15;;;;;;;;;;;;;;;34.00;36.89;96371.50;5113348;27;19975;-48
2022/08/03 11:20:44;;;;;;;;;;;;;;;34.38;35.83;96368.69;5112773;28;19967;-48
2022/08/03 11:23:12;;;;;;;;;;;;;;;34.36;35.33;96373.66;5107808;28;19967;-50
2022/08/03 11:25:59;;;;;;;;;;;;;;;34.18;35.58;96369.03;5112220;28;19959;-48
2022/08/03 11:28:28;;;;;;;;;;;;;;;34.52;36.08;96370.66;5106579;28;19974;-49
2022/08/03 11:30:58;;;;;;;;;;;;;;;34.25;34.23;96367.53;5112398;28;20363;-47
2022/08/03 11:33:29;;;;;;;;;;;;;;;33.97;33.54;96352.09;5112133;28;19962;-47
2022/08/03 11:35:58;;;;;;;;;;;;;;;34.12;34.41;96354.59;5113089;28;19978;-49
2022/08/03 11:38:26;;;;;;;;;;;;;;;34.04;34.09;96360.75;5112040;28;19971;-45
2022/08/03 11:40:54;;;;;;;;;;;;;;;34.38;34.81;96357.75;5112075;28;20361;-50
2022/08/03 11:43:44;;;;;;;;;;;;;;;33.75;34.62;96364.44;5111585;28;19967;-47
2022/08/03 11:46:17;;;;;;;;;;;;;;;34.22;33.33;96356.38;5112587;28;19951;-54
2022/08/03 11:49:02;;;;;;;;;;;;;;;34.99;33.57;96355.03;5107689;28;19951;-48
2022/08/03 11:51:37;;;;;;;;;;;;;;;35.32;32.72;96359.31;5111566;28;19979;-46
2022/08/03 11:54:06;;;;;;;;;;;;;;;34.97;32.98;96352.59;5111626;28;19977;-49
2022/08/03 11:56:43;;;;;;;;;;;;;;;33.74;34.25;96356.53;5112295;28;20198;-50
2022/08/03 11:59:11;;;;;;;;;;;;;;;34.75;34.85;96353.28;5111818;27;19951;-48
2022/08/03 12:01:49;;;;;;;;;;;;;;;34.47;33.76;96353.19;5111075;28;19975;-49
2022/08/03 12:04:17;;;;;;;;;;;;;;;34.09;33.56;96346.97;5111253;28;19963;-49
2022/08/03 12:06:58;;;;;;;;;;;;;;;34.55;33.66;96345.41;5109197;28;19962;-48
2022/08/03 12:09:26;;;;;;;;;;;;;;;35.42;32.75;96342.66;5107896;28;20342;-46
2022/08/03 12:11:54;;;;;;;;;;;;;;;33.72;34.58;96359.53;5111508;27;19966;-45
2022/08/03 12:14:28;;;;;;;;;;;;;;;34.09;33.96;96341.50;5111645;28;19958;-51
2022/08/03 12:17:17;;;;;;;;;;;;;;;34.43;33.36;96345.88;5113452;27;19974;-46
2022/08/03 12:19:46;;;;;;;;;;;;;;;34.78;33.47;96338.16;5111303;27;19966;-47
2022/08/03 12:22:15;;;;;;;;;;;;;;;34.79;32.47;96331.56;5111334;28;19967;-49
2022/08/03 12:24:44;;;;;;;;;;;;;;;35.18;32.57;96329.16;5111609;27;19977;-47
2022/08/03 12:27:22;;;;;;;;;;;;;;;34.25;33.04;96331.94;5111635;28;19974;-50
2022/08/03 12:29:50;;;;;;;;;;;;;;;34.13;33.22;96328.03;5111130;28;19955;-52
2022/08/03 12:32:27;;;;;;;;;;;;;;;34.34;33.57;96326.56;5111294;28;19963;-45
2022/08/03 12:34:58;;;;;;;;;;;;;;;35.14;32.19;96322.69;5111117;28;19963;-48
2022/08/03 12:37:28;;;;;;;;;;;;;;;35.30;31.87;96325.88;5111794;28;19959;-46
2022/08/03 12:39:58;;;;;;;;;;;;;;;35.18;32.33;96320.13;5111062;28;19962;-49
2022/08/03 12:42:32;;;;;;;;;;;;;;;35.05;32.27;96326.44;5110843;28;19958;-46
2022/08/03 12:45:17;;;;;;;;;;;;;;;35.48;31.74;96323.31;5111428;28;19955;-46
2022/08/03 12:48:02;;;;;;;;;;;;;;;35.35;31.32;96320.31;5108521;28;19959;-49
2022/08/03 12:50:32;;;;;;;;;;;;;;;34.64;32.55;96319.78;5107817;28;19963;-51
2022/08/03 12:53:01;;;;;;;;;;;;;;;34.70;32.47;96315.84;5110135;28;20028;-53
2022/08/03 12:55:33;;;;;;;;;;;;;;;34.89;33.08;96309.44;5111230;28;19954;-48
2022/08/03 12:58:32;;;;;;;;;;;;;;;35.77;31.25;96312.00;5110620;28;19986;-51
2022/08/03 13:01:01;;;;;;;;;;;;;;;35.25;32.58;96308.75;5110921;28;19974;-52
2022/08/03 13:03:40;;;;;;;;;;;;;;;34.64;33.35;96310.75;5108499;28;19955;-48
2022/08/03 13:06:14;;;;;;;;;;;;;;;34.71;32.85;96305.69;5110872;28;19970;-51
2022/08/03 13:08:42;;;;;;;;;;;;;;;35.10;32.71;96313.44;5111118;28;19959;-47
2022/08/03 13:11:20;;;;;;;;;;;;;;;34.65;32.86;96313.19;5110401;28;19990;-51
2022/08/03 13:13:49;;;;;;;;;;;;;;;35.50;31.20;96313.66;5110354;28;20428;-54